Time;durP1;ratioP1;P1;durP2;ratioP2;P2;SDS_P1;SDS_P2;PMS_P1;PMS_P2;Temp;Humidity;BMP_temperature;BMP_pressure;BME280_temperature;BME280_humidity;BME280_pressure;Samples;Min_cycle;Max_cycle;Signal;HPM_P1;HPM_P2
2021/04/01 00:01:08;;;;;;;37.58;25.52;;;;;;;11.09;73.89;99841.73;1728633;82;21177;-67
2021/04/01 00:03:42;;;;;;;38.65;26.75;;;;;;;11.17;73.63;99828.78;1744817;81;21650;-67
2021/04/01 00:06:10;;;;;;;42.38;26.73;;;;;;;11.09;73.66;99824.53;1751264;82;21295;-67
2021/04/01 00:08:39;;;;;;;39.30;26.02;;;;;;;10.97;73.85;99828.87;1752079;82;21201;-67
2021/04/01 00:11:09;;;;;;;37.08;25.62;;;;;;;10.87;74.00;99828.69;1742940;82;21150;-67
2021/04/01 00:13:37;;;;;;;40.98;25.85;;;;;;;10.94;73.79;99823.31;1735426;82;21315;-67
2021/04/01 00:16:05;;;;;;;40.58;25.52;;;;;;;10.90;73.92;99820.53;1746058;82;21098;-67
2021/04/01 00:18:34;;;;;;;37.13;25.05;;;;;;;10.80;74.20;99819.48;1721425;83;21181;-67
2021/04/01 00:21:03;;;;;;;35.65;24.25;;;;;;;10.72;74.47;99811.25;1723569;82;21172;-66
2021/04/01 00:23:31;;;;;;;36.58;24.60;;;;;;;10.80;74.36;99802.29;1751251;82;21182;-67
2021/04/01 00:26:00;;;;;;;38.13;25.27;;;;;;;10.80;74.43;99804.94;1741449;82;21175;-67
2021/04/01 00:28:27;;;;;;;33.95;24.30;;;;;;;10.72;74.67;99805.97;1735572;82;21153;-67
2021/04/01 00:30:55;;;;;;;39.05;25.37;;;;;;;10.65;74.88;99804.20;1746117;82;21578;-67
2021/04/01 00:33:22;;;;;;;38.35;25.27;;;;;;;10.74;74.71;99800.07;1748559;82;21149;-66
2021/04/01 00:35:50;;;;;;;38.10;25.45;;;;;;;10.79;74.60;99796.63;1751528;82;21146;-67
2021/04/01 00:38:17;;;;;;;38.33;26.27;;;;;;;10.71;74.76;99794.52;1751545;82;21186;-67
2021/04/01 00:40:45;;;;;;;35.65;24.45;;;;;;;10.61;74.97;99787.73;1749494;82;21121;-67
2021/04/01 00:43:12;;;;;;;33.33;23.92;;;;;;;10.60;74.91;99783.84;1737957;82;21280;-66
2021/04/01 00:45:40;;;;;;;36.80;23.90;;;;;;;10.69;74.62;99783.68;1751306;82;21130;-66
2021/04/01 00:48:09;;;;;;;37.70;25.17;;;;;;;10.61;74.62;99782.44;1743114;82;21178;-66
2021/04/01 00:50:36;;;;;;;37.53;23.52;;;;;;;10.49;74.80;99781.96;1721827;82;21348;-66
2021/04/01 00:53:04;;;;;;;35.08;23.15;;;;;;;10.44;74.94;99774.34;1733113;82;21201;-66
2021/04/01 00:55:32;;;;;;;37.58;23.30;;;;;;;10.52;74.71;99772.97;1731509;82;21142;-66
2021/04/01 00:58:01;;;;;;;36.30;25.05;;;;;;;10.46;74.74;99778.19;1721887;83;21734;-66
2021/04/01 01:00:31;;;;;;;33.80;21.77;;;;;;;10.36;75.06;99774.49;1737084;82;21133;-65
2021/04/01 01:02:58;;;;;;;32.67;22.73;;;;;;;10.33;75.33;99775.52;1741699;82;21772;-66
2021/04/01 01:05:29;;;;;;;36.23;23.98;;;;;;;10.42;75.33;99763.05;1737149;81;21202;-66
2021/04/01 01:07:58;;;;;;;37.13;24.75;;;;;;;10.38;75.60;99764.67;1747136;81;21295;-66
2021/04/01 01:10:31;;;;;;;40.08;27.00;;;;;;;10.27;75.74;99770.69;1762586;81;21168;-66
2021/04/01 01:13:01;;;;;;;48.33;31.52;;;;;;;10.29;75.68;99760.38;1755121;81;21149;-66
2021/04/01 01:15:30;;;;;;;49.95;32.08;;;;;;;10.32;75.57;99752.70;1754213;81;21172;-66
2021/04/01 01:17:58;;;;;;;43.52;29.00;;;;;;;10.23;75.74;99762.11;1756608;81;21117;-66
2021/04/01 01:20:27;;;;;;;43.98;29.07;;;;;;;10.13;75.88;99761.05;1732841;81;21196;-67
2021/04/01 01:22:56;;;;;;;43.23;28.40;;;;;;;10.20;75.72;99753.55;1739478;81;21314;-66
2021/04/01 01:25:23;;;;;;;47.43;29.07;;;;;;;10.17;75.80;99750.64;1738559;81;21172;-66
2021/04/01 01:27:50;;;;;;;38.98;26.15;;;;;;;10.08;76.03;99760.52;1762615;81;21959;-66
2021/04/01 01:30:40;;;;;;;42.30;26.68;;;;;;;10.06;76.07;99753.16;1745329;81;21168;-66
2021/04/01 01:33:09;;;;;;;38.60;26.27;;;;;;;10.14;75.91;99748.19;1648399;86;21196;-66
2021/04/01 01:35:37;;;;;;;39.80;25.10;;;;;;;10.07;76.18;99750.90;1648314;87;21155;-67
2021/04/01 01:38:07;;;;;;;36.58;23.38;;;;;;;10.00;76.50;99751.80;1644161;87;21197;-66
2021/04/01 01:40:34;;;;;;;38.30;24.40;;;;;;;10.08;76.41;99744.67;1644619;87;21186;-67
2021/04/01 01:43:06;;;;;;;40.50;26.85;;;;;;;10.14;76.22;99742.44;1647711;87;21635;-66
2021/04/01 01:45:33;;;;;;;39.20;25.15;;;;;;;10.09;76.35;99742.37;1638418;87;21183;-67
2021/04/01 01:48:01;;;;;;;35.45;24.07;;;;;;;10.04;76.49;99748.45;1634557;87;21192;-66
2021/04/01 01:50:31;;;;;;;40.12;26.15;;;;;;;10.14;76.28;99742.90;1632774;87;21328;-67
2021/04/01 01:52:59;;;;;;;40.05;26.35;;;;;;;10.14;76.22;99746.87;1644180;87;21619;-67
2021/04/01 01:55:27;;;;;;;37.15;25.37;;;;;;;10.07;76.35;99735.05;1643622;87;21174;-67
2021/04/01 01:57:54;;;;;;;38.55;24.80;;;;;;;10.04;76.34;99729.49;1651772;87;21326;-66
2021/04/01 02:00:44;;;;;;;43.42;26.15;;;;;;;10.09;76.07;99719.45;1649551;87;21173;-66
2021/04/01 02:03:12;;;;;;;40.20;24.82;;;;;;;10.03;76.15;99723.00;1644529;87;21153;-66
2021/04/01 02:05:42;;;;;;;38.85;23.85;;;;;;;9.89;76.35;99720.81;1644151;87;21218;-66
2021/04/01 02:08:12;;;;;;;41.48;26.00;;;;;;;9.94;76.23;99719.19;1647746;87;21725;-65
2021/04/01 02:10:44;;;;;;;42.88;26.15;;;;;;;9.94;76.04;99718.70;1643950;87;21243;-66
2021/04/01 02:13:23;;;;;;;40.55;27.40;;;;;;;9.87;76.25;99709.98;1770353;79;22967;-66
2021/04/01 02:15:51;;;;;;;40.95;26.65;;;;;;;9.74;76.32;99716.08;1734336;82;21119;-67
2021/04/01 02:18:23;;;;;;;40.83;27.30;;;;;;;9.82;76.09;99715.56;1723766;82;21277;-66
2021/04/01 02:20:53;;;;;;;40.25;27.00;;;;;;;9.82;76.05;99712.47;1753194;82;21702;-66
2021/04/01 02:23:28;;;;;;;41.48;26.30;;;;;;;9.75;76.31;99715.62;1746492;82;21729;-67
2021/04/01 02:25:56;;;;;;;39.78;25.95;;;;;;;9.70;76.49;99717.25;1726943;82;21316;-66
2021/04/01 02:28:26;;;;;;;39.40;26.37;;;;;;;9.83;76.27;99718.58;1723093;82;21198;-67
2021/04/01 02:30:57;;;;;;;39.95;25.97;;;;;;;9.82;76.42;99711.14;1723695;82;21143;-66
2021/04/01 02:33:30;;;;;;;38.90;24.45;;;;;;;9.78;76.62;99706.16;1733224;82;21699;-67
2021/04/01 02:35:58;;;;;;;39.53;25.57;;;;;;;9.78;76.71;99716.27;1746307;82;21285;-66
2021/04/01 02:40:34;;;;;;;42.15;27.02;;;;;;;9.94;76.58;99710.77;1775562;79;23017;-68
2021/04/01 02:43:03;;;;;;;34.83;23.02;;;;;;;9.82;76.77;99702.36;1744645;82;21166;-67
2021/04/01 02:45:31;;;;;;;37.65;24.18;;;;;;;9.81;76.83;99704.66;1728292;82;21670;-68
2021/04/01 02:47:58;;;;;;;36.13;24.95;;;;;;;9.93;76.66;99707.75;1723050;83;21171;-68
2021/04/01 02:50:25;;;;;;;37.35;24.60;;;;;;;9.91;76.75;99707.03;1729469;82;21596;-65
2021/04/01 02:52:53;;;;;;;36.80;24.25;;;;;;;9.86;76.97;99708.28;1744416;82;21163;-66
2021/04/01 02:55:20;;;;;;;37.75;24.05;;;;;;;9.94;76.82;99703.34;1722943;82;21170;-66
2021/04/01 02:57:48;;;;;;;42.93;26.57;;;;;;;10.00;76.68;99703.75;1723289;83;21658;-66
2021/04/01 03:00:21;;;;;;;34.92;23.25;;;;;;;9.95;76.77;99699.27;1724875;82;21187;-66
2021/04/01 03:02:58;;;;;;;34.45;23.35;;;;;;;9.91;76.82;99693.83;1748474;82;21312;-66
2021/04/01 03:05:20;;;;;;;38.78;24.72;;;;;;;10.06;76.57;99699.00;1737300;82;21297;-66
2021/04/01 03:07:47;;;;;;;42.05;25.45;;;;;;;10.04;76.60;99694.28;1748741;82;21165;-66
2021/04/01 03:10:15;;;;;;;38.63;24.90;;;;;;;9.97;76.78;99691.23;1723135;83;21190;-67
2021/04/01 03:12:42;;;;;;;37.05;24.92;;;;;;;10.02;76.63;99691.75;1723205;83;21329;-66
2021/04/01 03:15:12;;;;;;;40.75;26.30;;;;;;;10.10;76.44;99689.90;1736604;82;21147;-66
2021/04/01 03:17:42;;;;;;;37.80;24.40;;;;;;;10.05;76.56;99688.05;1723020;83;21328;-66
2021/04/01 03:20:11;;;;;;;37.33;23.70;;;;;;;10.00;76.69;99686.58;1737193;82;21135;-67
2021/04/01 03:22:39;;;;;;;36.95;25.70;;;;;;;10.13;76.36;99689.70;1750900;81;21289;-67
2021/04/01 03:25:08;;;;;;;39.30;26.57;;;;;;;10.13;76.34;99686.58;1735734;82;21591;-67
2021/04/01 03:27:36;;;;;;;36.50;23.92;;;;;;;10.09;76.48;99696.13;1685124;83;21252;-67
2021/04/01 03:30:11;;;;;;;36.65;24.57;;;;;;;10.11;76.47;99691.59;1702704;83;21224;-67
2021/04/01 03:32:46;;;;;;;37.98;25.10;;;;;;;10.20;76.17;99688.31;1722294;83;21542;-67
2021/04/01 03:35:18;;;;;;;36.60;24.55;;;;;;;10.17;76.17;99674.00;1694494;83;21333;-67
2021/04/01 03:37:47;;;;;;;33.40;22.50;;;;;;;10.10;76.35;99682.84;1700252;83;21135;-67
2021/04/01 03:40:16;;;;;;;40.73;25.12;;;;;;;10.18;76.17;99682.30;1723015;83;21198;-67
2021/04/01 03:42:43;;;;;;;39.75;26.52;;;;;;;10.20;76.00;99671.13;1696816;83;21172;-66
2021/04/01 03:45:12;;;;;;;36.08;24.00;;;;;;;10.11;76.12;99677.06;1713319;83;21161;-67
2021/04/01 03:47:40;;;;;;;40.33;25.77;;;;;;;10.07;76.13;99683.03;1719419;83;21321;-67
2021/04/01 03:50:10;;;;;;;37.90;25.08;;;;;;;10.15;75.86;99675.44;1724034;83;21171;-67
2021/04/01 03:52:38;;;;;;;40.00;26.00;;;;;;;10.12;75.90;99680.08;1723630;83;21615;-67
2021/04/01 04:00:42;;;;;;;42.05;25.27;;;;;;;10.09;75.85;99669.70;1923732;74;22843;-67
2021/04/01 04:03:20;;;;;;;39.08;25.17;;;;;;;9.97;76.01;99678.88;1821692;78;21155;-67
2021/04/01 04:05:46;;;;;;;38.88;23.98;;;;;;;9.90;76.15;99672.77;1880698;76;21122;-68
2021/04/01 04:08:32;;;;;;;38.17;24.95;;;;;;;10.00;75.98;99671.22;1883877;76;21120;-67
2021/04/01 04:10:50;;;;;;;40.00;26.07;;;;;;;10.04;76.01;99665.22;1899856;75;21260;-67
2021/04/01 04:15:46;;;;;;;35.07;24.13;;;;;;;10.04;76.32;99663.44;1879383;76;21116;-67
2021/04/01 04:18:13;;;;;;;37.78;25.62;;;;;;;10.25;76.04;99657.11;1879685;75;21076;-67
2021/04/01 04:20:41;;;;;;;39.92;24.50;;;;;;;10.33;75.96;99652.14;1851988;77;21595;-67
2021/04/01 04:23:11;;;;;;;36.03;24.18;;;;;;;10.43;75.87;99647.55;1851772;77;21104;-68
2021/04/01 04:25:37;;;;;;;36.85;24.02;;;;;;;10.63;75.41;99650.92;1851479;76;21185;-67
2021/04/01 04:28:15;;;;;;;35.98;24.82;;;;;;;10.80;75.01;99644.89;1828817;76;22076;-67
2021/04/01 04:30:38;;;;;;;37.70;23.57;;;;;;;10.88;74.79;99643.87;1826112;76;21324;-67
2021/04/01 04:33:05;;;;;;;37.25;23.22;;;;;;;11.04;74.39;99641.41;1772413;80;21608;-67
2021/04/01 04:35:33;;;;;;;37.30;22.82;;;;;;;11.29;73.75;99638.62;1808266;79;21151;-66
2021/04/01 04:38:00;;;;;;;41.13;26.35;;;;;;;11.44;73.32;99637.92;1803366;77;21159;-67
2021/04/01 04:40:27;;;;;;;40.23;23.73;;;;;;;11.53;72.96;99636.88;1834164;78;21166;-66
2021/04/01 04:42:55;;;;;;;35.83;23.20;;;;;;;11.69;72.37;99637.39;1839243;78;21135;-66
2021/04/01 04:45:22;;;;;;;42.65;25.97;;;;;;;11.91;71.83;99635.23;1763220;79;21159;-67
2021/04/01 04:47:49;;;;;;;43.05;27.30;;;;;;;11.99;71.43;99629.37;1838545;78;21259;-66
2021/04/01 04:50:16;;;;;;;42.23;24.43;;;;;;;12.00;71.22;99624.44;1838720;78;21170;-67
2021/04/01 04:52:43;;;;;;;43.48;26.10;;;;;;;12.02;71.08;99624.31;1834544;76;21114;-67
2021/04/01 04:55:12;;;;;;;39.67;25.90;;;;;;;12.22;70.64;99622.75;1840366;77;21146;-67
2021/04/01 05:05:52;;;;;;;34.80;23.15;;;;;;;12.85;68.69;99621.66;1849532;76;21310;-67
2021/04/01 05:08:19;;;;;;;44.35;25.90;;;;;;;13.05;67.74;99612.53;1783113;79;21290;-68
2021/04/01 05:10:48;;;;;;;41.92;25.52;;;;;;;13.12;67.56;99616.38;1810717;77;21131;-68
2021/04/01 05:13:16;;;;;;;39.90;24.52;;;;;;;13.22;66.88;99611.98;1842673;78;21143;-68
2021/04/01 05:15:48;;;;;;;38.92;24.23;;;;;;;13.30;66.66;99615.78;1799635;80;21194;-67
2021/04/01 05:20:47;;;;;;;38.05;24.02;;;;;;;13.63;65.71;99606.80;1791226;79;21327;-68
2021/04/01 05:25:43;;;;;;;38.20;25.90;;;;;;;13.80;65.33;99615.14;1777325;80;21176;-68
2021/04/01 05:30:50;;;;;;;42.75;26.02;;;;;;;14.15;63.84;99593.47;1779821;79;22977;-68
2021/04/01 05:33:18;;;;;;;37.53;26.35;;;;;;;14.15;63.84;99593.47;1752320;82;21135;-67
2021/04/01 05:35:46;;;;;;;45.17;25.27;;;;;;;14.15;63.78;99600.62;1752547;82;21116;-68
2021/04/01 05:38:14;;;;;;;38.25;24.92;;;;;;;14.20;63.51;99600.55;1752419;82;21762;-67
2021/04/01 05:40:42;;;;;;;36.17;25.45;;;;;;;14.20;63.51;99600.55;1752835;82;21321;-67
2021/04/01 05:43:19;;;;;;;38.45;26.00;;;;;;;14.51;63.20;99592.50;1740867;82;21317;-68
2021/04/01 05:45:46;;;;;;;37.00;25.12;;;;;;;14.51;63.20;99592.50;1722385;83;21162;-67
2021/04/01 05:48:18;;;;;;;39.55;25.70;;;;;;;14.64;62.11;99590.97;1738019;82;21297;-68
2021/04/01 06:04:33;;;;;;;42.17;28.47;;;;;;;14.71;62.13;99581.94;1702300;82;21169;-68
2021/04/01 06:07:09;;;;;;;40.03;27.32;;;;;;;14.70;62.04;99582.91;1695717;82;21190;-68
2021/04/01 06:09:40;;;;;;;37.93;25.85;;;;;;;14.66;61.92;99578.34;1739663;80;21171;-67
2021/04/01 06:12:08;;;;;;;45.17;27.35;;;;;;;14.58;61.86;99580.34;1740991;80;21155;-68
2021/04/01 06:15:11;;;;;;;38.58;25.32;;;;;;;14.48;62.13;99577.33;1746691;80;21171;-67
2021/04/01 06:17:35;;;;;;;38.73;24.57;;;;;;;14.47;62.37;99567.66;1755974;80;21143;-67
2021/04/01 06:20:07;;;;;;;40.95;25.40;;;;;;;14.58;62.23;99567.03;1738309;80;21151;-68
2021/04/01 06:22:34;;;;;;;38.28;26.00;;;;;;;14.61;62.35;99569.91;1740255;80;21802;-68
2021/04/01 06:25:02;;;;;;;36.70;25.17;;;;;;;14.67;62.29;99566.73;1716564;80;21182;-68
2021/04/01 06:27:39;;;;;;;37.80;25.70;;;;;;;14.74;62.38;99565.20;1734095;82;21817;-68
2021/04/01 06:30:26;;;;;;;46.83;26.77;;;;;;;14.86;62.26;99561.05;1669532;82;21191;-68
2021/04/01 06:33:05;;;;;;;52.98;25.27;;;;;;;14.99;61.81;99570.94;1699892;82;21195;-67
2021/04/01 06:35:33;;;;;;;38.23;23.27;;;;;;;15.09;61.41;99568.28;1701684;82;21155;-67
2021/04/01 06:40:57;;;;;;;38.23;23.50;;;;;;;15.37;60.55;99560.36;1696220;83;21131;-68
2021/04/01 06:43:58;;;;;;;34.98;22.98;;;;;;;15.38;60.48;99562.05;1707613;82;21279;-67
2021/04/01 06:46:30;;;;;;;35.48;23.52;;;;;;;15.41;60.23;99559.11;1692855;82;21182;-67
2021/04/01 06:54:37;;;;;;;33.13;23.65;;;;;;;15.64;59.88;99554.75;1685051;83;21304;-68
2021/04/01 07:03:25;;;;;;;32.65;23.55;;;;;;;15.82;59.50;99546.38;1791798;78;21111;-69
2021/04/01 07:06:04;;;;;;;50.65;24.90;;;;;;;15.88;59.06;99540.46;1772910;78;21439;-67
2021/04/01 07:11:37;;;;;;;29.65;21.57;;;;;;;15.97;58.97;99535.21;1707251;81;21175;-68
2021/04/01 07:14:13;;;;;;;41.65;22.10;;;;;;;16.03;59.08;99538.63;1721009;81;21152;-67
2021/04/01 07:19:25;;;;;;;32.00;20.92;;;;;;;16.24;58.58;99530.86;1725528;81;21203;-68
2021/04/01 07:47:57;;;;;;;32.17;18.90;;;;;;;16.95;56.83;99505.20;1727181;82;21627;-66
2021/04/01 07:50:26;;;;;;;26.20;17.32;;;;;;;17.05;56.67;99511.28;1702243;84;21174;-69
2021/04/01 07:52:57;;;;;;;26.75;17.95;;;;;;;17.12;56.56;99501.66;1705145;82;21210;-68
2021/04/01 07:55:40;;;;;;;24.20;17.27;;;;;;;17.22;56.08;99502.04;1722687;82;21583;-68
2021/04/01 08:06:27;;;;;;;23.80;16.83;;;;;;;17.52;55.37;99488.18;1689500;84;21183;-68
2021/04/01 08:08:58;;;;;;;24.77;15.45;;;;;;;17.58;55.20;99484.53;1688274;83;21144;-68
2021/04/01 08:11:31;;;;;;;23.18;16.55;;;;;;;17.61;55.50;99477.03;1733963;83;21446;-68
2021/04/01 08:19:24;;;;;;;24.85;17.20;;;;;;;18.08;54.60;99474.39;1747553;80;21122;-67
2021/04/01 08:21:54;;;;;;;20.17;15.38;;;;;;;18.36;53.84;99470.08;1750349;82;21297;-68
2021/04/01 08:24:33;;;;;;;24.07;17.23;;;;;;;18.50;53.47;99458.73;1729207;82;21175;-68
2021/04/01 08:27:17;;;;;;;28.15;16.87;;;;;;;18.62;53.01;99459.71;1703516;82;21163;-67
2021/04/01 08:30:49;;;;;;;22.80;16.70;;;;;;;18.69;52.97;99462.58;1696746;82;21202;-68
2021/04/01 08:32:34;;;;;;;25.20;17.07;;;;;;;18.73;52.81;99453.20;1633460;86;21201;-68
2021/04/01 08:34:51;;;;;;;24.50;15.95;;;;;;;18.77;52.38;99447.34;1670472;83;21324;-68
2021/04/01 08:37:21;;;;;;;22.45;15.80;;;;;;;18.84;52.16;99448.33;1672916;83;21163;-68
2021/04/01 08:39:56;;;;;;;29.70;17.42;;;;;;;18.84;51.70;99443.48;1635373;85;21209;-67
2021/04/01 08:42:48;;;;;;;23.22;16.07;;;;;;;18.76;52.21;99440.31;1658663;83;21331;-68
2021/04/01 08:48:37;;;;;;;23.40;16.95;;;;;;;18.73;51.80;99435.27;1680139;83;21343;-67
2021/04/01 08:51:31;;;;;;;22.48;16.25;;;;;;;18.71;52.01;99430.61;1673711;83;21190;-68
2021/04/01 08:54:10;;;;;;;22.30;16.10;;;;;;;18.74;52.20;99443.65;1679861;83;21162;-66
2021/04/01 08:56:57;;;;;;;37.78;17.92;;;;;;;18.76;52.07;99420.70;1635770;85;21313;-68
2021/04/01 08:59:31;;;;;;;26.10;17.10;;;;;;;18.76;52.08;99418.02;1669320;84;21182;-68
2021/04/01 09:01:59;;;;;;;23.50;17.23;;;;;;;18.78;52.00;99418.70;1667907;85;21204;-68
2021/04/01 09:04:35;;;;;;;26.73;17.77;;;;;;;18.79;51.88;99412.34;1677849;83;21210;-68
2021/04/01 09:07:08;;;;;;;25.15;16.82;;;;;;;18.79;51.98;99417.19;1683501;85;21135;-68
2021/04/01 09:09:36;;;;;;;24.00;17.10;;;;;;;18.80;51.62;99408.16;1660285;83;21186;-67
2021/04/01 09:12:32;;;;;;;25.52;18.05;;;;;;;18.81;51.85;99406.30;1681390;83;21621;-68
2021/04/01 09:15:02;;;;;;;35.13;17.27;;;;;;;18.80;51.76;99409.49;1679073;84;21750;-67
2021/04/01 09:17:33;;;;;;;22.07;17.90;;;;;;;18.80;51.99;99405.47;1680692;84;21152;-67
2021/04/01 09:20:21;;;;;;;25.15;18.73;;;;;;;18.84;51.85;99393.92;1669463;84;21155;-68
2021/04/01 09:22:51;;;;;;;25.15;17.85;;;;;;;18.87;52.12;99389.55;1666948;84;21305;-68
2021/04/01 09:25:19;;;;;;;24.98;17.40;;;;;;;18.93;52.07;99395.59;1664605;84;21207;-68
2021/04/01 09:27:55;;;;;;;35.28;17.55;;;;;;;19.00;51.95;99387.70;1707522;82;21155;-67
2021/04/01 09:30:23;;;;;;;26.27;17.85;;;;;;;19.04;51.79;99385.04;1705968;83;21595;-68
2021/04/01 09:32:54;;;;;;;26.97;18.07;;;;;;;19.10;51.29;99382.98;1722102;82;21153;-68
2021/04/01 09:35:21;;;;;;;27.05;17.02;;;;;;;19.17;51.24;99380.47;1718386;83;21227;-68
2021/04/01 09:38:01;;;;;;;22.45;16.35;;;;;;;19.21;50.88;99380.45;1708639;82;21293;-68
2021/04/01 09:40:33;;;;;;;21.93;14.83;;;;;;;19.28;50.36;99377.91;1718367;82;21163;-68
2021/04/01 09:43:21;;;;;;;24.05;15.75;;;;;;;19.33;49.99;99375.54;1698281;82;21647;-68
2021/04/01 09:45:51;;;;;;;23.38;17.05;;;;;;;19.36;49.83;99374.35;1739000;82;21122;-68
2021/04/01 09:48:29;;;;;;;25.08;15.60;;;;;;;19.39;49.78;99376.70;1699706;83;21187;-69
2021/04/01 09:51:00;;;;;;;28.20;19.02;;;;;;;19.41;49.58;99366.63;1721366;82;21321;-67
2021/04/01 09:53:28;;;;;;;30.82;15.32;;;;;;;19.46;49.45;99366.93;1702852;83;21185;-68
2021/04/01 09:55:57;;;;;;;18.50;14.60;;;;;;;19.53;48.76;99369.74;1706800;82;21167;-67
2021/04/01 09:58:37;;;;;;;18.98;13.75;;;;;;;19.59;47.84;99361.00;1725983;82;21301;-68
2021/04/01 10:01:30;;;;;;;17.30;12.45;;;;;;;19.65;47.79;99354.94;1709816;82;21288;-68
2021/04/01 10:04:19;;;;;;;27.42;15.00;;;;;;;19.74;47.17;99348.50;1702133;82;21175;-68
2021/04/01 10:09:34;;;;;;;38.73;16.93;;;;;;;19.93;46.42;99332.47;1803658;79;28176;-67
2021/04/01 10:12:06;;;;;;;24.75;14.60;;;;;;;19.97;46.31;99342.34;1774545;79;21841;-67
2021/04/01 10:14:36;;;;;;;19.70;14.78;;;;;;;19.95;46.66;99344.39;1805966;79;21618;-68
2021/04/01 10:17:09;;;;;;;17.15;13.10;;;;;;;19.63;47.38;99340.88;1759887;79;21321;-68
2021/04/01 10:19:40;;;;;;;18.42;13.00;;;;;;;19.46;47.92;99335.61;1763676;79;21167;-68
2021/04/01 10:22:22;;;;;;;21.52;14.45;;;;;;;19.53;46.47;99329.52;1782094;79;21288;-68
2021/04/01 10:27:58;;;;;;;19.50;12.23;;;;;;;19.65;46.41;99323.59;1800899;79;21170;-68
2021/04/01 10:30:25;;;;;;;13.98;9.63;;;;;;;19.43;45.74;99323.88;1790048;79;21272;-68
2021/04/01 10:33:08;;;;;;;12.25;8.35;;;;;;;19.26;44.41;99317.77;1798101;79;21166;-67
2021/04/01 10:35:36;;;;;;;10.03;7.37;;;;;;;19.08;43.50;99315.34;1775229;79;21190;-68
2021/04/01 10:38:04;;;;;;;10.38;7.80;;;;;;;18.98;41.81;99305.33;1761341;81;21587;-68
2021/04/01 10:40:33;;;;;;;18.30;8.03;;;;;;;18.89;42.31;99303.16;1779660;79;21774;-68
2021/04/01 10:43:09;;;;;;;11.97;7.70;;;;;;;18.78;42.21;99296.30;1779998;79;21208;-68
2021/04/01 10:45:39;;;;;;;9.65;6.90;;;;;;;18.71;43.23;99299.84;1802248;79;21630;-68
2021/04/01 10:48:33;;;;;;;11.78;7.55;;;;;;;18.61;42.66;99286.16;1790859;80;21211;-67
2021/04/01 10:51:03;;;;;;;8.93;6.22;;;;;;;18.64;42.52;99287.66;1804319;79;21205;-67
2021/04/01 10:53:31;;;;;;;14.30;8.13;;;;;;;18.60;41.98;99285.81;1779732;79;21296;-67
2021/04/01 10:56:04;;;;;;;11.53;7.58;;;;;;;18.57;42.75;99283.98;1761620;81;21344;-70
2021/04/01 10:58:32;;;;;;;;;;;;;;;18.54;42.77;99273.11;1793352;79;21169;-67
2021/04/01 11:01:00;;;;;;;13.90;7.45;;;;;;;18.53;42.77;99261.23;1778277;79;20853;-67
2021/04/01 11:03:34;;;;;;;13.40;8.28;;;;;;;18.57;42.93;99266.58;1777192;79;21186;-68
2021/04/01 11:06:01;;;;;;;12.75;7.65;;;;;;;18.69;43.24;99265.20;1805593;79;21170;-68
2021/04/01 11:08:51;;;;;;;11.63;8.08;;;;;;;18.78;42.60;99256.13;1765813;79;21343;-67
2021/04/01 11:11:18;;;;;;;11.83;7.95;;;;;;;18.85;42.94;99256.30;1676789;85;21197;-68
2021/04/01 11:13:46;;;;;;;15.93;9.48;;;;;;;18.92;43.00;99251.92;1680438;84;21181;-68
2021/04/01 11:16:15;;;;;;;14.98;9.53;;;;;;;18.98;43.17;99251.23;1687443;84;21194;-68
2021/04/01 11:18:47;;;;;;;35.17;11.20;;;;;;;19.02;43.73;99241.00;1681773;84;21677;-68
2021/04/01 11:21:15;;;;;;;11.10;9.00;;;;;;;19.15;44.10;99239.09;1690450;84;21150;-67
2021/04/01 11:23:45;;;;;;;16.32;11.33;;;;;;;19.37;42.82;99232.07;1672055;85;21212;-68
2021/04/01 11:26:12;;;;;;;12.58;8.35;;;;;;;19.54;41.59;99220.75;1657418;85;21347;-68
2021/04/01 11:28:51;;;;;;;15.70;8.83;;;;;;;19.65;41.60;99214.97;1664411;85;21095;-68
2021/04/01 11:31:26;;;;;;;16.05;9.73;;;;;;;19.71;41.45;99217.42;1660244;85;21827;-68
2021/04/01 11:33:59;;;;;;;16.90;9.73;;;;;;;19.73;42.17;99219.91;1651726;85;21181;-68
2021/04/01 11:36:31;;;;;;;15.90;9.48;;;;;;;19.68;42.50;99217.80;1635366;87;21351;-66
2021/04/01 11:39:01;;;;;;;12.43;9.83;;;;;;;19.65;43.26;99208.75;1628983;87;21205;-66
2021/04/01 11:41:30;;;;;;;11.12;9.35;;;;;;;19.70;43.13;99213.06;1650128;85;21340;-67
2021/04/01 11:43:59;;;;;;;14.45;9.50;;;;;;;19.73;42.75;99206.02;1667024;85;21646;-67
2021/04/01 11:46:30;;;;;;;16.52;9.75;;;;;;;19.72;42.56;99198.98;1653191;85;21221;-67
2021/04/01 11:48:59;;;;;;;15.00;9.83;;;;;;;19.70;43.01;99198.83;1654995;85;21178;-66
2021/04/01 11:51:32;;;;;;;11.73;8.53;;;;;;;19.73;43.13;99203.81;1648295;87;21153;-68
2021/04/01 11:53:59;;;;;;;16.82;10.10;;;;;;;19.74;43.38;99191.56;1642602;85;21156;-68
2021/04/01 11:56:38;;;;;;;15.28;10.38;;;;;;;19.76;43.56;99187.38;1712360;83;21267;-68
2021/04/01 11:59:10;;;;;;;13.20;9.50;;;;;;;19.80;43.69;99189.50;1703914;83;21129;-67
2021/04/01 12:04:40;;;;;;;13.60;9.00;;;;;;;20.04;42.80;99170.69;1812674;77;22815;-66
2021/04/01 12:07:09;;;;;;;17.57;9.40;;;;;;;20.00;42.35;99169.39;1702325;83;21616;-69
2021/04/01 12:09:36;;;;;;;19.50;8.70;;;;;;;19.89;41.85;99162.64;1726692;82;21209;-67
2021/04/01 12:12:06;;;;;;;14.70;8.50;;;;;;;19.77;42.22;99154.14;1732838;81;21129;-67
2021/04/01 12:14:38;;;;;;;13.22;8.68;;;;;;;19.80;42.03;99150.59;1744313;80;21146;-67
2021/04/01 12:17:06;;;;;;;10.98;8.80;;;;;;;19.93;41.69;99150.52;1720070;81;21614;-67
2021/04/01 12:19:35;;;;;;;28.00;11.00;;;;;;;20.04;41.88;99146.04;1723944;83;21179;-68
2021/04/01 12:22:10;;;;;;;22.62;14.07;;;;;;;20.14;41.61;99145.25;1715992;81;21589;-68
2021/04/01 12:24:37;;;;;;;16.12;8.68;;;;;;;20.19;41.27;99143.86;1697646;83;21174;-67
2021/04/01 12:27:05;;;;;;;11.73;8.93;;;;;;;20.19;41.22;99139.83;1698349;82;21300;-68
2021/04/01 12:29:35;;;;;;;16.05;8.75;;;;;;;20.11;40.97;99134.88;1694087;84;21159;-68
2021/04/01 12:32:04;;;;;;;15.53;8.93;;;;;;;19.98;41.19;99132.02;1681170;83;21309;-67
2021/04/01 12:34:32;;;;;;;10.80;7.70;;;;;;;19.86;41.31;99126.77;1691237;83;21147;-68
2021/04/01 12:37:03;;;;;;;15.15;8.30;;;;;;;19.74;41.66;99123.16;1698304;83;21168;-68
2021/04/01 12:39:35;;;;;;;38.08;10.03;;;;;;;19.69;41.63;99118.84;1694945;83;21194;-68
2021/04/01 12:42:03;;;;;;;11.88;7.78;;;;;;;19.72;41.20;99109.11;1695503;83;21171;-67
2021/04/01 12:44:41;;;;;;;10.10;6.67;;;;;;;19.77;41.17;99105.37;1694649;83;21167;-67
2021/04/01 12:47:09;;;;;;;21.95;8.28;;;;;;;19.78;39.61;99103.02;1677894;84;21171;-67
2021/04/01 12:49:37;;;;;;;21.00;8.33;;;;;;;19.63;39.91;99101.64;1705082;82;21168;-67
2021/04/01 12:52:09;;;;;;;9.73;6.65;;;;;;;19.52;40.87;99103.95;1684765;84;21186;-67
2021/04/01 12:54:39;;;;;;;17.07;8.55;;;;;;;19.47;40.59;99094.58;1714373;83;21095;-67
2021/04/01 12:57:15;;;;;;;15.53;8.18;;;;;;;19.42;40.72;99091.61;1727999;82;21185;-68
2021/04/01 12:59:43;;;;;;;19.12;7.12;;;;;;;19.45;40.53;99087.23;1722979;82;21150;-68
2021/04/01 13:02:43;;;;;;;10.70;7.03;;;;;;;19.58;40.37;99088.47;1720948;82;22251;-67
2021/04/01 13:04:53;;;;;;;11.90;8.20;;;;;;;19.71;39.64;99079.80;1690822;84;21173;-66
2021/04/01 13:12:22;;;;;;;11.05;8.08;;;;;;;19.95;38.09;99063.97;1708073;83;21207;-67
2021/04/01 13:14:49;;;;;;;20.32;8.40;;;;;;;19.94;37.80;99067.66;1707938;82;21170;-68
2021/04/01 13:17:19;;;;;;;15.58;7.70;;;;;;;19.93;38.71;99062.78;1689295;83;21107;-68
2021/04/01 13:19:46;;;;;;;11.18;6.87;;;;;;;19.97;38.78;99048.49;1720398;82;21313;-68
2021/04/01 13:27:22;;;;;;;18.60;8.18;;;;;;;20.15;39.01;99033.34;1747723;81;21305;-68
2021/04/01 13:29:54;;;;;;;16.20;7.85;;;;;;;20.17;37.71;99038.52;1712443;82;21181;-68
2021/04/01 13:32:35;;;;;;;20.97;8.10;;;;;;;20.22;37.30;99033.44;1720295;83;21551;-66
2021/04/01 13:35:09;;;;;;;12.00;8.00;;;;;;;20.28;37.33;99025.95;1703313;82;21318;-68
2021/04/01 13:37:43;;;;;;;12.15;8.45;;;;;;;20.26;36.97;99029.35;1716855;82;21194;-70
2021/04/01 13:40:14;;;;;;;18.85;10.03;;;;;;;20.24;37.57;99028.70;1736875;81;21139;-68